Time;durP1;ratioP1;P1;durP2;ratioP2;P2;SDS_P1;SDS_P2;PMS_P1;PMS_P2;Temp;Humidity;BMP_temperature;BMP_pressure;BME280_temperature;BME280_humidity;BME280_pressure;Samples;Min_cycle;Max_cycle;Signal;HPM_P1;HPM_P2
2023/12/05 00:00:21;;;;;;;39.30;19.52;;;;;;;;;;4931375;28;20062;-86
2023/12/05 00:02:47;;;;;;;41.53;20.73;;;;;;;;;;4963625;28;20043;-86
2023/12/05 00:05:14;;;;;;;42.83;19.33;;;;;;;;;;4951521;28;20078;-85
2023/12/05 00:07:39;;;;;;;39.95;20.00;;;;;;;;;;4933605;28;20331;-85
2023/12/05 00:10:05;;;;;;;36.72;18.30;;;;;;;;;;4933750;28;20538;-86
2023/12/05 00:12:31;;;;;;;36.30;18.55;;;;;;;;;;4948103;28;20044;-84
2023/12/05 00:14:56;;;;;;;38.88;18.42;;;;;;;;;;4950949;28;20039;-85
2023/12/05 00:17:25;;;;;;;40.13;19.15;;;;;;;;;;4933320;28;20047;-86
2023/12/05 00:19:50;;;;;;;35.97;18.75;;;;;;;;;;4934783;28;20448;-86
2023/12/05 00:22:16;;;;;;;38.28;18.83;;;;;;;;;;4933176;28;20040;-85
2023/12/05 00:24:41;;;;;;;36.35;19.08;;;;;;;;;;4959135;28;20031;-87
2023/12/05 00:27:06;;;;;;;39.22;18.70;;;;;;;;;;4929832;28;20745;-86
2023/12/05 00:29:32;;;;;;;36.70;18.90;;;;;;;;;;4930141;28;20059;-86
2023/12/05 00:31:57;;;;;;;43.05;20.42;;;;;;;;;;4928864;28;20042;-86
2023/12/05 00:34:23;;;;;;;39.10;18.50;;;;;;;;;;4964188;28;20043;-86
2023/12/05 00:36:48;;;;;;;37.83;18.75;;;;;;;;;;4931484;28;20028;-85
2023/12/05 00:39:14;;;;;;;39.08;19.40;;;;;;;;;;4947854;28;20523;-85
2023/12/05 00:41:40;;;;;;;38.83;18.30;;;;;;;;;;4961402;28;20044;-85
2023/12/05 00:44:05;;;;;;;39.10;19.27;;;;;;;;;;4930628;28;20431;-84
2023/12/05 00:46:30;;;;;;;40.33;18.40;;;;;;;;;;4913287;28;20032;-85
2023/12/05 00:48:56;;;;;;;44.00;20.05;;;;;;;;;;4945151;28;20044;-84
2023/12/05 00:51:21;;;;;;;38.20;20.00;;;;;;;;;;4929074;28;20032;-84
2023/12/05 00:53:47;;;;;;;39.90;19.42;;;;;;;;;;4931490;28;20762;-84
2023/12/05 00:56:14;;;;;;;38.45;19.67;;;;;;;;;;4946065;28;20043;-84
2023/12/05 00:58:40;;;;;;;37.58;18.58;;;;;;;;;;4945657;28;20047;-84
2023/12/05 01:01:05;;;;;;;40.63;19.55;;;;;;;;;;4962008;28;20040;-85
2023/12/05 01:03:31;;;;;;;40.05;19.15;;;;;;;;;;4933151;28;20043;-85
2023/12/05 01:05:56;;;;;;;38.22;18.65;;;;;;;;;;4935689;28;20118;-87
2023/12/05 01:08:22;;;;;;;35.55;18.65;;;;;;;;;;4928289;28;20742;-84
2023/12/05 01:10:47;;;;;;;38.10;19.48;;;;;;;;;;4924701;28;20554;-84
2023/12/05 01:13:12;;;;;;;40.67;20.38;;;;;;;;;;4930728;29;20043;-84
2023/12/05 01:15:38;;;;;;;39.88;18.83;;;;;;;;;;4945893;28;20032;-87
2023/12/05 01:18:04;;;;;;;40.05;19.73;;;;;;;;;;4915414;28;20063;-87
2023/12/05 01:20:30;;;;;;;37.53;19.92;;;;;;;;;;4947386;28;20039;-87
2023/12/05 01:22:55;;;;;;;36.22;19.10;;;;;;;;;;4945923;28;20047;-86
2023/12/05 01:25:21;;;;;;;44.20;21.40;;;;;;;;;;4927804;28;20508;-86
2023/12/05 01:27:47;;;;;;;39.63;19.77;;;;;;;;;;4944671;28;20031;-84
2023/12/05 01:30:13;;;;;;;39.58;20.27;;;;;;;;;;4913506;29;20040;-84
2023/12/05 01:32:38;;;;;;;37.40;17.50;;;;;;;;;;4927985;29;20038;-85
2023/12/05 01:35:04;;;;;;;38.08;19.38;;;;;;;;;;4929287;28;20055;-85
2023/12/05 01:37:29;;;;;;;43.92;18.83;;;;;;;;;;4951966;28;20923;-84
2023/12/05 01:39:55;;;;;;;39.72;19.63;;;;;;;;;;4960288;28;20082;-85
2023/12/05 01:42:20;;;;;;;35.30;18.15;;;;;;;;;;4929303;28;20036;-86
2023/12/05 01:44:45;;;;;;;37.50;19.73;;;;;;;;;;4945788;28;20408;-86
2023/12/05 01:47:11;;;;;;;38.05;18.90;;;;;;;;;;4945487;28;20027;-86
2023/12/05 01:49:37;;;;;;;41.67;19.65;;;;;;;;;;4927805;28;21042;-85
2023/12/05 01:52:03;;;;;;;39.22;19.55;;;;;;;;;;4928651;28;20031;-87
2023/12/05 01:54:29;;;;;;;40.13;20.05;;;;;;;;;;4915951;28;20400;-86
2023/12/05 01:56:55;;;;;;;36.80;19.27;;;;;;;;;;4912118;28;20040;-86
2023/12/05 01:59:22;;;;;;;35.88;19.35;;;;;;;;;;4929298;28;20059;-85
2023/12/05 02:01:49;;;;;;;36.90;18.00;;;;;;;;;;4928814;28;20032;-86
2023/12/05 02:04:15;;;;;;;39.63;19.08;;;;;;;;;;4944843;28;20062;-85
2023/12/05 02:06:41;;;;;;;36.83;19.30;;;;;;;;;;4960696;28;20032;-86
2023/12/05 02:09:08;;;;;;;37.40;18.48;;;;;;;;;;4914989;28;20500;-86
2023/12/05 02:11:34;;;;;;;36.50;19.20;;;;;;;;;;4946039;28;20046;-86
2023/12/05 02:14:00;;;;;;;39.35;19.63;;;;;;;;;;4931721;28;20508;-86
2023/12/05 02:16:34;;;;;;;35.67;18.77;;;;;;;;;;4927956;28;20122;-86
2023/12/05 02:19:14;;;;;;;38.88;18.55;;;;;;;;;;4961439;28;20036;-87
2023/12/05 02:21:40;;;;;;;37.13;20.13;;;;;;;;;;4946102;28;20095;-85
2023/12/05 02:24:38;;;;;;;41.53;18.38;;;;;;;;;;4913830;28;20066;-87
2023/12/05 02:27:17;;;;;;;42.38;20.30;;;;;;;;;;4926925;28;20194;-85
2023/12/05 02:29:51;;;;;;;40.53;18.92;;;;;;;;;;4944092;28;20059;-86
2023/12/05 02:32:17;;;;;;;36.80;18.10;;;;;;;;;;4958981;28;20494;-84
2023/12/05 02:34:43;;;;;;;35.80;18.48;;;;;;;;;;4951872;28;20046;-84
2023/12/05 02:37:16;;;;;;;37.88;19.00;;;;;;;;;;4926195;28;20035;-85
2023/12/05 02:39:55;;;;;;;41.70;18.05;;;;;;;;;;4944436;28;20042;-85
2023/12/05 02:42:24;;;;;;;38.53;19.85;;;;;;;;;;4927967;28;20044;-87
2023/12/05 02:44:51;;;;;;;35.25;18.40;;;;;;;;;;4946074;28;20086;-85
2023/12/05 02:47:17;;;;;;;;;;;;;;;;;;4915338;28;20701;-85
2023/12/05 02:49:43;;;;;;;37.53;18.73;;;;;;;;;;4911672;29;19919;-85
2023/12/05 02:52:09;;;;;;;39.75;19.73;;;;;;;;;;4943246;28;20039;-85
2023/12/05 02:54:34;;;;;;;36.95;20.42;;;;;;;;;;4924256;28;20052;-84
2023/12/05 02:57:00;;;;;;;40.15;20.20;;;;;;;;;;4893524;29;20043;-84
2023/12/05 02:59:25;;;;;;;40.92;20.58;;;;;;;;;;4892975;29;20039;-85
2023/12/05 03:01:51;;;;;;;41.50;19.50;;;;;;;;;;4922551;28;20537;-86
2023/12/05 03:04:17;;;;;;;37.17;19.85;;;;;;;;;;4899751;29;20522;-85
2023/12/05 03:06:43;;;;;;;40.05;19.52;;;;;;;;;;4924143;28;20039;-85
2023/12/05 03:09:08;;;;;;;38.85;20.55;;;;;;;;;;4896847;28;20350;-86
2023/12/05 03:11:34;;;;;;;39.72;20.15;;;;;;;;;;4893930;29;20036;-85
2023/12/05 03:13:59;;;;;;;39.60;20.05;;;;;;;;;;4894211;29;20123;-85
2023/12/05 03:16:25;;;;;;;38.15;19.10;;;;;;;;;;4910254;29;20123;-86
2023/12/05 03:18:50;;;;;;;36.80;18.95;;;;;;;;;;4943022;28;20036;-85
2023/12/05 03:21:18;;;;;;;37.33;18.40;;;;;;;;;;4908385;29;20092;-85
2023/12/05 03:23:43;;;;;;;;;;;;;;;;;;4926499;28;20059;-86
2023/12/05 03:26:24;;;;;;;36.85;19.30;;;;;;;;;;4916248;29;19919;-86
2023/12/05 03:28:51;;;;;;;42.38;20.65;;;;;;;;;;4894112;28;20068;-85
2023/12/05 03:31:17;;;;;;;38.67;19.35;;;;;;;;;;4923863;29;20037;-86
2023/12/05 03:33:42;;;;;;;37.78;18.65;;;;;;;;;;4897131;29;20036;-85
2023/12/05 03:36:08;;;;;;;36.22;18.92;;;;;;;;;;4897696;29;20388;-85
2023/12/05 03:38:34;;;;;;;39.28;19.80;;;;;;;;;;4924250;29;20044;-85
2023/12/05 03:40:59;;;;;;;38.33;19.92;;;;;;;;;;4907915;29;20537;-86
2023/12/05 03:43:24;;;;;;;38.20;19.75;;;;;;;;;;4893909;29;20040;-86
2023/12/05 03:45:50;;;;;;;37.92;19.02;;;;;;;;;;4925504;29;20048;-85
2023/12/05 03:48:16;;;;;;;37.15;18.70;;;;;;;;;;4907620;29;20038;-85
2023/12/05 03:50:41;;;;;;;36.50;19.88;;;;;;;;;;4898749;29;20064;-86
2023/12/05 03:53:07;;;;;;;44.75;20.23;;;;;;;;;;4912994;29;20036;-86
2023/12/05 03:55:35;;;;;;;35.90;19.35;;;;;;;;;;4907259;28;20411;-85
2023/12/05 03:58:02;;;;;;;38.72;18.40;;;;;;;;;;4958866;28;20172;-85
2023/12/05 04:00:27;;;;;;;36.63;18.88;;;;;;;;;;4913469;28;20056;-86
2023/12/05 04:02:53;;;;;;;37.88;19.67;;;;;;;;;;4945822;28;20046;-85
2023/12/05 04:05:18;;;;;;;38.13;19.95;;;;;;;;;;4948405;28;20127;-86
2023/12/05 04:07:44;;;;;;;36.55;18.70;;;;;;;;;;4916085;29;20036;-85
2023/12/05 04:10:10;;;;;;;40.33;19.00;;;;;;;;;;4916978;29;20040;-85
2023/12/05 04:12:35;;;;;;;39.17;19.70;;;;;;;;;;4930057;28;20472;-85
2023/12/05 04:15:01;;;;;;;37.28;18.58;;;;;;;;;;4915423;28;20031;-83
2023/12/05 04:17:26;;;;;;;37.45;19.75;;;;;;;;;;4914741;28;20032;-86
2023/12/05 04:19:52;;;;;;;39.13;19.58;;;;;;;;;;4946159;28;20440;-85
2023/12/05 04:22:17;;;;;;;38.67;19.75;;;;;;;;;;4930292;28;20130;-85
2023/12/05 04:24:43;;;;;;;39.13;19.92;;;;;;;;;;4948492;28;20047;-85
2023/12/05 04:27:08;;;;;;;39.90;19.17;;;;;;;;;;4913758;28;20038;-85
2023/12/05 04:29:34;;;;;;;40.65;20.35;;;;;;;;;;4916974;28;20466;-85
2023/12/05 04:32:01;;;;;;;38.03;19.60;;;;;;;;;;4929353;28;20882;-85
2023/12/05 04:34:27;;;;;;;37.53;19.63;;;;;;;;;;4915206;28;20120;-85
2023/12/05 04:36:52;;;;;;;38.17;20.40;;;;;;;;;;4929638;28;20052;-85
2023/12/05 04:39:17;;;;;;;36.40;19.50;;;;;;;;;;4914645;28;20102;-85
2023/12/05 04:41:43;;;;;;;35.33;19.35;;;;;;;;;;4929207;29;20103;-84
2023/12/05 04:44:08;;;;;;;42.65;20.67;;;;;;;;;;4929855;28;20031;-84
2023/12/05 04:46:40;;;;;;;39.22;19.17;;;;;;;;;;4929262;28;20575;-84
2023/12/05 04:49:05;;;;;;;37.95;20.02;;;;;;;;;;4930697;28;20043;-85
2023/12/05 04:51:31;;;;;;;39.70;19.80;;;;;;;;;;4913997;28;20046;-86
2023/12/05 04:53:57;;;;;;;41.40;20.15;;;;;;;;;;4946291;28;20508;-84
2023/12/05 04:56:22;;;;;;;37.72;19.98;;;;;;;;;;4927565;28;20115;-85
2023/12/05 04:58:48;;;;;;;40.10;19.75;;;;;;;;;;4947890;28;20036;-85
2023/12/05 05:01:18;;;;;;;39.58;19.48;;;;;;;;;;4944815;28;20475;-85
2023/12/05 05:03:44;;;;;;;40.88;19.70;;;;;;;;;;4922637;28;20043;-84
2023/12/05 05:06:12;;;;;;;39.05;19.23;;;;;;;;;;4960782;28;20488;-84
2023/12/05 05:08:38;;;;;;;40.17;20.52;;;;;;;;;;4932143;28;20035;-84
2023/12/05 05:11:03;;;;;;;41.13;19.67;;;;;;;;;;4928922;28;20046;-81
2023/12/05 05:13:29;;;;;;;40.42;20.38;;;;;;;;;;4929646;28;20822;-82
2023/12/05 05:15:54;;;;;;;37.38;19.75;;;;;;;;;;4914422;28;20043;-82
2023/12/05 05:18:19;;;;;;;38.67;19.88;;;;;;;;;;4929435;28;20038;-82
2023/12/05 05:20:45;;;;;;;36.60;19.58;;;;;;;;;;4913828;28;20040;-83
2023/12/05 05:23:11;;;;;;;38.53;19.63;;;;;;;;;;4944884;28;20047;-82
2023/12/05 05:25:36;;;;;;;37.42;19.55;;;;;;;;;;4914314;28;20038;-82
2023/12/05 05:28:02;;;;;;;39.92;20.65;;;;;;;;;;4933048;28;20043;-81
2023/12/05 05:30:27;;;;;;;37.63;18.88;;;;;;;;;;4962556;28;20055;-80
2023/12/05 05:32:53;;;;;;;38.78;20.38;;;;;;;;;;4927772;28;20028;-79
2023/12/05 05:35:18;;;;;;;36.15;18.73;;;;;;;;;;4961007;28;20828;-81
2023/12/05 05:37:43;;;;;;;40.35;20.55;;;;;;;;;;4961089;28;20035;-80
2023/12/05 05:40:09;;;;;;;38.95;20.25;;;;;;;;;;4929173;28;20392;-80
2023/12/05 05:42:35;;;;;;;42.15;19.50;;;;;;;;;;4929006;28;20035;-80
2023/12/05 05:45:00;;;;;;;38.72;19.80;;;;;;;;;;4945714;28;20047;-81
2023/12/05 05:47:25;;;;;;;37.85;19.33;;;;;;;;;;4928027;28;20032;-81
2023/12/05 05:49:51;;;;;;;39.90;19.90;;;;;;;;;;4930650;28;20099;-81
2023/12/05 05:52:16;;;;;;;36.92;19.17;;;;;;;;;;4928442;28;20377;-79
2023/12/05 05:54:42;;;;;;;38.40;20.20;;;;;;;;;;4945336;28;20094;-79
2023/12/05 05:57:07;;;;;;;41.75;20.02;;;;;;;;;;4944723;28;20118;-79
2023/12/05 05:59:32;;;;;;;34.58;19.38;;;;;;;;;;4912900;28;20035;-79
2023/12/05 06:01:58;;;;;;;39.45;20.70;;;;;;;;;;4945934;28;20059;-80
2023/12/05 06:04:24;;;;;;;41.83;20.60;;;;;;;;;;4928613;28;20432;-83
2023/12/05 06:06:49;;;;;;;35.30;18.60;;;;;;;;;;4911208;28;20118;-83
2023/12/05 06:09:15;;;;;;;42.53;21.08;;;;;;;;;;4946425;28;20530;-83
2023/12/05 06:11:42;;;;;;;36.40;19.25;;;;;;;;;;4940085;28;20043;-81
2023/12/05 06:14:07;;;;;;;39.17;20.65;;;;;;;;;;4926691;28;20040;-83
2023/12/05 06:16:32;;;;;;;38.30;19.02;;;;;;;;;;4926647;28;20044;-82
2023/12/05 06:18:58;;;;;;;36.50;19.58;;;;;;;;;;4958253;28;20040;-82
2023/12/05 06:21:23;;;;;;;36.72;19.65;;;;;;;;;;4940831;28;20040;-82
2023/12/05 06:23:49;;;;;;;36.60;19.42;;;;;;;;;;4939389;28;20067;-82
2023/12/05 06:26:14;;;;;;;35.35;19.02;;;;;;;;;;4918255;28;20039;-82
2023/12/05 06:28:40;;;;;;;35.95;18.63;;;;;;;;;;4909688;29;20554;-82
2023/12/05 06:31:05;;;;;;;34.90;18.10;;;;;;;;;;4926937;28;20051;-82
2023/12/05 06:33:31;;;;;;;37.90;19.83;;;;;;;;;;4927401;28;20403;-82
2023/12/05 06:35:57;;;;;;;38.85;19.25;;;;;;;;;;4951857;28;20027;-83
2023/12/05 06:38:22;;;;;;;38.20;19.67;;;;;;;;;;4912076;28;20082;-83
2023/12/05 06:40:48;;;;;;;37.08;19.48;;;;;;;;;;4928174;28;20122;-83
2023/12/05 06:43:13;;;;;;;38.38;20.52;;;;;;;;;;4912104;29;20043;-83
2023/12/05 06:45:39;;;;;;;38.30;19.00;;;;;;;;;;4930713;28;20214;-83
2023/12/05 06:48:04;;;;;;;37.78;19.35;;;;;;;;;;4924543;28;20124;-83
2023/12/05 06:50:30;;;;;;;38.20;20.10;;;;;;;;;;4941382;28;20031;-83
2023/12/05 06:52:57;;;;;;;35.20;18.35;;;;;;;;;;4912224;28;20423;-83
2023/12/05 06:55:26;;;;;;;31.85;17.35;;;;;;;;;;4942295;28;20492;-83
2023/12/05 06:57:51;;;;;;;35.55;18.63;;;;;;;;;;4925680;28;20087;-83
2023/12/05 07:00:18;;;;;;;38.00;19.25;;;;;;;;;;4925367;28;20075;-83
2023/12/05 07:02:44;;;;;;;33.70;18.00;;;;;;;;;;4910975;29;20040;-83
2023/12/05 07:05:09;;;;;;;39.13;19.33;;;;;;;;;;4960326;28;20035;-83
2023/12/05 07:07:35;;;;;;;36.30;19.38;;;;;;;;;;4942517;28;20122;-83
2023/12/05 07:10:01;;;;;;;37.22;18.60;;;;;;;;;;4944260;28;20062;-83
2023/12/05 07:12:26;;;;;;;34.70;18.92;;;;;;;;;;4916862;28;20039;-83
2023/12/05 07:14:52;;;;;;;35.28;18.40;;;;;;;;;;4916213;28;20046;-83
2023/12/05 07:17:18;;;;;;;35.88;19.05;;;;;;;;;;4925840;28;20533;-83
2023/12/05 07:19:44;;;;;;;33.63;17.73;;;;;;;;;;4930656;29;20556;-83
2023/12/05 07:22:12;;;;;;;37.15;18.48;;;;;;;;;;4896033;28;20050;-83
2023/12/05 07:24:38;;;;;;;36.78;18.90;;;;;;;;;;4943170;28;20517;-83
2023/12/05 07:27:04;;;;;;;41.75;19.58;;;;;;;;;;4911150;28;20115;-83
2023/12/05 07:29:29;;;;;;;37.83;19.65;;;;;;;;;;4958610;28;20046;-83
2023/12/05 07:31:54;;;;;;;37.33;19.33;;;;;;;;;;4927579;28;20027;-83
2023/12/05 07:34:20;;;;;;;33.25;18.92;;;;;;;;;;4943583;28;20058;-83
2023/12/05 07:36:46;;;;;;;31.83;17.67;;;;;;;;;;4927193;28;20114;-83
2023/12/05 07:39:12;;;;;;;32.78;18.27;;;;;;;;;;4928940;28;20547;-84
2023/12/05 07:41:39;;;;;;;33.17;17.77;;;;;;;;;;4947616;28;20126;-83
2023/12/05 07:44:06;;;;;;;32.87;17.97;;;;;;;;;;4932481;28;20154;-83
2023/12/05 07:46:31;;;;;;;34.85;18.48;;;;;;;;;;4945639;28;20271;-83
2023/12/05 07:48:56;;;;;;;35.47;19.27;;;;;;;;;;4933539;28;20039;-83
2023/12/05 07:51:22;;;;;;;32.58;18.63;;;;;;;;;;4930277;28;20118;-83
2023/12/05 07:53:50;;;;;;;33.35;17.77;;;;;;;;;;4929535;28;20054;-83
2023/12/05 07:56:15;;;;;;;34.08;18.45;;;;;;;;;;4930525;29;20566;-83
2023/12/05 07:58:43;;;;;;;36.83;18.33;;;;;;;;;;4962591;28;20063;-83
2023/12/05 08:01:08;;;;;;;33.20;18.13;;;;;;;;;;4945061;28;20039;-83
2023/12/05 08:03:35;;;;;;;33.92;17.98;;;;;;;;;;4914361;28;20412;-83
2023/12/05 08:06:04;;;;;;;37.85;18.80;;;;;;;;;;4944596;28;20046;-82
2023/12/05 08:08:30;;;;;;;35.88;18.40;;;;;;;;;;4930966;28;20091;-83
2023/12/05 08:10:57;;;;;;;34.53;18.42;;;;;;;;;;4914878;28;20719;-83
2023/12/05 08:13:23;;;;;;;33.40;18.70;;;;;;;;;;4913421;28;20032;-83
2023/12/05 08:15:48;;;;;;;32.25;18.00;;;;;;;;;;4928224;28;20047;-83
2023/12/05 08:18:13;;;;;;;34.20;19.00;;;;;;;;;;4915469;29;20041;-83
2023/12/05 08:20:39;;;;;;;38.47;19.13;;;;;;;;;;4932474;28;20056;-83
2023/12/05 08:23:04;;;;;;;30.02;17.92;;;;;;;;;;4914730;28;20050;-83
2023/12/05 08:25:29;;;;;;;38.88;19.17;;;;;;;;;;4962984;28;20118;-81
2023/12/05 08:27:55;;;;;;;35.88;19.40;;;;;;;;;;4915647;28;20032;-82
2023/12/05 08:30:23;;;;;;;33.20;18.00;;;;;;;;;;4924552;28;20036;-80
2023/12/05 08:32:49;;;;;;;33.97;18.58;;;;;;;;;;4929656;28;20054;-83
2023/12/05 08:35:15;;;;;;;35.22;19.27;;;;;;;;;;4947157;28;20036;-81
2023/12/05 08:37:41;;;;;;;34.03;17.57;;;;;;;;;;4913211;29;20059;-82
2023/12/05 08:40:08;;;;;;;33.10;18.05;;;;;;;;;;4932089;28;20075;-83
2023/12/05 08:42:33;;;;;;;35.22;18.35;;;;;;;;;;4944851;28;20047;-82
2023/12/05 08:44:59;;;;;;;33.97;18.40;;;;;;;;;;4946243;28;20039;-82
2023/12/05 08:47:24;;;;;;;31.63;17.15;;;;;;;;;;4946173;28;20492;-81
2023/12/05 08:49:50;;;;;;;31.70;18.02;;;;;;;;;;4947647;28;20036;-81
2023/12/05 08:52:15;;;;;;;32.90;17.92;;;;;;;;;;4932157;28;20130;-81
2023/12/05 08:54:41;;;;;;;35.28;18.17;;;;;;;;;;4931955;28;20040;-81
2023/12/05 08:57:06;;;;;;;33.40;18.17;;;;;;;;;;4914214;28;20038;-81
2023/12/05 08:59:32;;;;;;;35.42;18.35;;;;;;;;;;4930471;28;20039;-81
2023/12/05 09:01:57;;;;;;;36.45;18.48;;;;;;;;;;4928315;28;20047;-81
2023/12/05 09:04:22;;;;;;;35.38;18.42;;;;;;;;;;4927823;28;20028;-81
2023/12/05 09:06:48;;;;;;;33.55;17.70;;;;;;;;;;4914739;28;20032;-81
2023/12/05 09:09:13;;;;;;;33.95;17.77;;;;;;;;;;4915957;29;20094;-81
2023/12/05 09:11:39;;;;;;;30.48;16.85;;;;;;;;;;4931497;28;20493;-81
2023/12/05 09:14:05;;;;;;;32.20;17.15;;;;;;;;;;4943407;28;20086;-81
2023/12/05 09:16:31;;;;;;;32.67;18.02;;;;;;;;;;4929771;28;20093;-81
2023/12/05 09:18:56;;;;;;;31.90;18.50;;;;;;;;;;4963258;28;20035;-81
2023/12/05 09:21:22;;;;;;;39.28;18.65;;;;;;;;;;4960782;28;20036;-81
2023/12/05 09:23:47;;;;;;;36.80;18.02;;;;;;;;;;4915564;28;20182;-81
2023/12/05 09:26:14;;;;;;;34.83;17.88;;;;;;;;;;4945985;28;20031;-81
2023/12/05 09:28:40;;;;;;;34.47;19.00;;;;;;;;;;4929066;29;20491;-81
2023/12/05 09:31:05;;;;;;;32.20;17.70;;;;;;;;;;4930624;28;20086;-81
2023/12/05 09:33:31;;;;;;;31.88;18.00;;;;;;;;;;4918721;28;20550;-80
2023/12/05 09:35:56;;;;;;;33.88;18.20;;;;;;;;;;4945191;28;20035;-80
2023/12/05 09:38:22;;;;;;;34.55;18.77;;;;;;;;;;4914400;28;20034;-81
2023/12/05 09:40:49;;;;;;;32.40;18.35;;;;;;;;;;4929003;28;20550;-81
2023/12/05 09:43:15;;;;;;;32.20;18.45;;;;;;;;;;4931605;29;20102;-81
2023/12/05 09:45:43;;;;;;;34.10;18.77;;;;;;;;;;4929797;28;20118;-82
2023/12/05 09:48:13;;;;;;;30.85;17.33;;;;;;;;;;4963102;28;20487;-81
2023/12/05 09:50:39;;;;;;;34.47;17.95;;;;;;;;;;4944331;28;20067;-82
2023/12/05 09:53:05;;;;;;;36.08;18.88;;;;;;;;;;4923682;28;20618;-81
2023/12/05 09:55:31;;;;;;;32.85;17.90;;;;;;;;;;4928327;28;20400;-81
2023/12/05 09:57:57;;;;;;;34.40;18.05;;;;;;;;;;4928712;28;20036;-81
2023/12/05 10:00:23;;;;;;;35.15;18.42;;;;;;;;;;4928871;28;20043;-82
2023/12/05 10:02:52;;;;;;;32.20;19.20;;;;;;;;;;4943406;28;20518;-81
2023/12/05 10:05:19;;;;;;;37.83;18.95;;;;;;;;;;4928428;28;20130;-81
2023/12/05 10:07:45;;;;;;;;;;;;;;;;;;4928786;29;20091;-81
2023/12/05 10:10:11;;;;;;;30.25;17.15;;;;;;;;;;4961024;28;19923;-81
2023/12/05 10:12:37;;;;;;;31.65;17.25;;;;;;;;;;4944778;28;20499;-81
2023/12/05 10:15:02;;;;;;;36.72;18.55;;;;;;;;;;4912796;29;20036;-81
2023/12/05 10:17:29;;;;;;;33.30;18.60;;;;;;;;;;4911648;28;20163;-81
2023/12/05 10:19:55;;;;;;;34.03;17.67;;;;;;;;;;4931537;28;20051;-81
2023/12/05 10:22:21;;;;;;;30.98;17.75;;;;;;;;;;4928809;28;20118;-81
2023/12/05 10:24:48;;;;;;;33.47;17.92;;;;;;;;;;4916851;28;20165;-81
2023/12/05 10:27:13;;;;;;;32.72;17.95;;;;;;;;;;4931361;28;20035;-81
2023/12/05 10:29:40;;;;;;;30.95;17.73;;;;;;;;;;4929320;28;20534;-80
2023/12/05 10:32:07;;;;;;;35.10;18.90;;;;;;;;;;4944586;28;20491;-80
2023/12/05 10:34:52;;;;;;;33.85;18.83;;;;;;;;;;4960662;28;20106;-79
2023/12/05 10:37:25;;;;;;;33.67;17.65;;;;;;;;;;4927889;28;20122;-79
2023/12/05 10:39:52;;;;;;;33.25;18.65;;;;;;;;;;4935192;28;20129;-81
2023/12/05 10:42:19;;;;;;;35.90;18.80;;;;;;;;;;4930761;28;20530;-80
2023/12/05 10:44:46;;;;;;;32.20;18.52;;;;;;;;;;4929366;28;20456;-82
2023/12/05 10:47:12;;;;;;;32.92;18.17;;;;;;;;;;4928036;28;20396;-80
2023/12/05 10:49:42;;;;;;;31.23;18.08;;;;;;;;;;4914709;28;20082;-81
2023/12/05 10:52:09;;;;;;;34.90;19.30;;;;;;;;;;4913143;28;20039;-79
2023/12/05 10:54:34;;;;;;;31.57;17.83;;;;;;;;;;4944477;28;20062;-80
2023/12/05 10:57:00;;;;;;;33.10;19.30;;;;;;;;;;4911666;28;20791;-80
2023/12/05 10:59:27;;;;;;;34.28;18.73;;;;;;;;;;4928448;28;20098;-79
2023/12/05 11:01:56;;;;;;;30.30;16.58;;;;;;;;;;4957828;28;20047;-80
2023/12/05 11:04:25;;;;;;;31.67;17.45;;;;;;;;;;4928257;28;20123;-81
2023/12/05 11:06:52;;;;;;;30.08;17.80;;;;;;;;;;4939997;28;20453;-79
2023/12/05 11:09:18;;;;;;;32.95;18.35;;;;;;;;;;4910676;28;20114;-81
2023/12/05 11:11:45;;;;;;;33.33;17.92;;;;;;;;;;4927871;29;20119;-81
2023/12/05 11:14:12;;;;;;;33.35;17.63;;;;;;;;;;4915248;29;20071;-80
2023/12/05 11:16:43;;;;;;;33.10;18.83;;;;;;;;;;4932164;28;20040;-80
2023/12/05 11:19:20;;;;;;;30.02;17.10;;;;;;;;;;4915284;28;20425;-80
2023/12/05 11:21:49;;;;;;;32.70;17.83;;;;;;;;;;4963307;28;20075;-82
2023/12/05 11:24:36;;;;;;;29.50;16.83;;;;;;;;;;4964426;28;20032;-80
2023/12/05 11:27:17;;;;;;;30.98;17.88;;;;;;;;;;4929889;28;20036;-79
2023/12/05 11:30:30;;;;;;;32.38;17.30;;;;;;;;;;4933668;28;20046;-80
2023/12/05 11:33:17;;;;;;;29.75;16.48;;;;;;;;;;4860926;29;20033;-79
2023/12/05 11:35:55;;;;;;;32.95;17.95;;;;;;;;;;4840896;29;20093;-80
2023/12/05 11:38:22;;;;;;;29.50;17.25;;;;;;;;;;4842378;29;20056;-79
2023/12/05 11:41:17;;;;;;;30.08;17.88;;;;;;;;;;4827934;29;20121;-80
2023/12/05 11:43:43;;;;;;;30.35;17.67;;;;;;;;;;4855242;29;20612;-79
2023/12/05 11:46:09;;;;;;;29.05;16.83;;;;;;;;;;4825277;29;20069;-80
2023/12/05 11:48:35;;;;;;;33.60;17.42;;;;;;;;;;4844630;29;20052;-79
2023/12/05 11:51:02;;;;;;;29.50;16.40;;;;;;;;;;4844428;29;20675;-79
2023/12/05 11:53:27;;;;;;;31.60;18.00;;;;;;;;;;4829955;29;20470;-79
2023/12/05 11:55:53;;;;;;;26.85;15.30;;;;;;;;;;4841915;29;20055;-80
2023/12/05 11:58:31;;;;;;;27.13;16.33;;;;;;;;;;4858422;29;20064;-80
2023/12/05 12:01:25;;;;;;;26.88;16.23;;;;;;;;;;4829337;29;20115;-81
2023/12/05 12:03:54;;;;;;;28.75;16.70;;;;;;;;;;4869325;29;20048;-79
2023/12/05 12:06:25;;;;;;;29.98;17.45;;;;;;;;;;4909552;29;20041;-79
2023/12/05 12:08:53;;;;;;;30.23;16.90;;;;;;;;;;4871451;29;20048;-78
2023/12/05 12:11:22;;;;;;;28.63;16.55;;;;;;;;;;4891432;29;20083;-79
2023/12/05 12:13:48;;;;;;;33.95;17.50;;;;;;;;;;4924587;29;20036;-80
2023/12/05 12:16:19;;;;;;;30.35;17.15;;;;;;;;;;4907492;29;20092;-79
2023/12/05 12:18:45;;;;;;;32.47;17.13;;;;;;;;;;4894265;29;20036;-79
2023/12/05 12:21:10;;;;;;;30.10;17.77;;;;;;;;;;4924737;29;20344;-81
2023/12/05 12:23:36;;;;;;;32.17;17.08;;;;;;;;;;4909068;29;20789;-80
2023/12/05 12:26:02;;;;;;;30.75;17.83;;;;;;;;;;4896036;29;20040;-80
2023/12/05 12:28:29;;;;;;;30.50;17.95;;;;;;;;;;4909321;29;20044;-81
2023/12/05 12:30:58;;;;;;;29.20;17.20;;;;;;;;;;4908776;29;20069;-80
2023/12/05 12:33:46;;;;;;;31.88;18.55;;;;;;;;;;4909089;29;20123;-80
2023/12/05 12:36:12;;;;;;;29.95;17.17;;;;;;;;;;4924277;29;20175;-80
2023/12/05 12:38:38;;;;;;;32.08;17.67;;;;;;;;;;4910635;28;20044;-80
2023/12/05 12:41:03;;;;;;;31.38;17.52;;;;;;;;;;4948599;28;20571;-80
2023/12/05 12:43:33;;;;;;;31.23;16.73;;;;;;;;;;4930811;28;20063;-81
2023/12/05 12:45:59;;;;;;;31.65;18.00;;;;;;;;;;4929157;28;20036;-81
2023/12/05 12:48:25;;;;;;;33.08;18.55;;;;;;;;;;4962028;28;20042;-80
2023/12/05 12:50:50;;;;;;;31.65;18.23;;;;;;;;;;4929207;28;20039;-80
2023/12/05 12:53:16;;;;;;;29.63;17.15;;;;;;;;;;4917138;29;20126;-80
2023/12/05 12:55:41;;;;;;;32.60;18.85;;;;;;;;;;4929656;28;20042;-81
2023/12/05 12:58:07;;;;;;;30.25;17.80;;;;;;;;;;4929482;28;20507;-81
2023/12/05 13:00:37;;;;;;;34.00;18.75;;;;;;;;;;4929033;28;20114;-80
2023/12/05 13:03:03;;;;;;;31.25;18.13;;;;;;;;;;4931084;28;20034;-80
2023/12/05 13:05:39;;;;;;;30.92;17.55;;;;;;;;;;4926656;28;20071;-80
2023/12/05 13:08:05;;;;;;;28.80;16.70;;;;;;;;;;4944035;28;20043;-79
2023/12/05 13:10:30;;;;;;;31.95;17.25;;;;;;;;;;4960460;28;20495;-80
2023/12/05 13:12:59;;;;;;;31.23;17.38;;;;;;;;;;4932404;28;20032;-81
2023/12/05 13:15:27;;;;;;;30.27;17.58;;;;;;;;;;4960944;28;20040;-81
2023/12/05 13:18:10;;;;;;;30.08;17.63;;;;;;;;;;4930938;28;20388;-80
2023/12/05 13:20:51;;;;;;;28.17;16.98;;;;;;;;;;4945327;28;20475;-80
2023/12/05 13:23:17;;;;;;;31.20;17.55;;;;;;;;;;4929046;28;20027;-81
2023/12/05 13:25:43;;;;;;;30.77;17.40;;;;;;;;;;4930763;28;20044;-80
2023/12/05 13:28:09;;;;;;;29.10;16.58;;;;;;;;;;4947804;28;20050;-80
2023/12/05 13:30:35;;;;;;;29.65;17.13;;;;;;;;;;4915030;28;20032;-81
2023/12/05 13:33:01;;;;;;;29.52;16.15;;;;;;;;;;4962428;28;20198;-80
2023/12/05 13:35:26;;;;;;;29.60;17.45;;;;;;;;;;4910980;28;20145;-81
2023/12/05 13:37:52;;;;;;;30.73;17.98;;;;;;;;;;4927625;28;20031;-79
2023/12/05 13:40:18;;;;;;;30.67;17.25;;;;;;;;;;4960914;28;20406;-80
2023/12/05 13:42:43;;;;;;;31.52;17.45;;;;;;;;;;4929058;28;20500;-79
2023/12/05 13:45:11;;;;;;;30.02;17.92;;;;;;;;;;4915472;28;20424;-81
2023/12/05 13:47:37;;;;;;;30.90;18.57;;;;;;;;;;4928166;28;20039;-81
2023/12/05 13:50:05;;;;;;;31.60;18.13;;;;;;;;;;4913680;28;20400;-81
2023/12/05 13:52:31;;;;;;;33.20;19.23;;;;;;;;;;4945354;28;20039;-80
2023/12/05 13:54:56;;;;;;;33.33;19.15;;;;;;;;;;4928856;28;20047;-80
2023/12/05 13:57:21;;;;;;;34.53;19.23;;;;;;;;;;4912446;28;20036;-80
2023/12/05 13:59:47;;;;;;;34.45;19.00;;;;;;;;;;4961173;28;20043;-80
2023/12/05 14:02:12;;;;;;;35.55;20.27;;;;;;;;;;4914031;29;20555;-80
2023/12/05 14:04:38;;;;;;;34.08;19.55;;;;;;;;;;4946196;28;20411;-81
2023/12/05 14:07:03;;;;;;;32.72;18.92;;;;;;;;;;4929068;28;20067;-80
2023/12/05 14:09:30;;;;;;;35.95;20.70;;;;;;;;;;4928890;28;20507;-80
2023/12/05 14:11:56;;;;;;;34.88;19.65;;;;;;;;;;4929650;28;20039;-80
2023/12/05 14:14:21;;;;;;;37.45;20.92;;;;;;;;;;4928700;28;20527;-80
2023/12/05 14:16:47;;;;;;;35.55;20.65;;;;;;;;;;4958693;28;20574;-80